createdAt,value
2024-01-11T00:01:16.305Z,102327.13
2024-01-11T00:03:45.977Z,102317.59
2024-01-11T00:06:12.864Z,102253.56
2024-01-11T00:08:39.763Z,102300.69
2024-01-11T00:11:06.668Z,102299.84
2024-01-11T00:13:38.957Z,102306.59
2024-01-11T00:16:11.148Z,102257.75
2024-01-11T00:18:40.515Z,102293.66
2024-01-11T00:21:07.484Z,102303.78
2024-01-11T00:23:34.402Z,102303.50
2024-01-11T00:26:01.327Z,102300.47
2024-01-11T00:28:29.740Z,102299.38
2024-01-11T00:30:56.682Z,102296.13
2024-01-11T00:33:23.961Z,102301.38
2024-01-11T00:35:50.722Z,102301.56
2024-01-11T00:38:17.737Z,102230.56
2024-01-11T00:40:50.619Z,102242.91
2024-01-11T00:43:17.418Z,102307.28
2024-01-11T00:45:47.195Z,102297.66
2024-01-11T00:48:16.527Z,102292.88
2024-01-11T00:50:48.641Z,102307.28
2024-01-11T00:53:16.077Z,102301.56
2024-01-11T00:55:46.023Z,102287.72
2024-01-11T00:58:12.873Z,102268.97
2024-01-11T01:00:39.695Z,102290.53
2024-01-11T01:03:06.515Z,102298.50
2024-01-11T01:05:37.316Z,102301.56
2024-01-11T01:08:07.427Z,102291.81
2024-01-11T01:10:34.329Z,102266.91
2024-01-11T01:13:01.035Z,102301.34
2024-01-11T01:15:27.825Z,102267.13
2024-01-11T01:17:54.748Z,102304.44
2024-01-11T01:20:21.695Z,102197.03
2024-01-11T01:22:48.398Z,102270.44
2024-01-11T01:25:16.807Z,102284.06
2024-01-11T01:27:43.666Z,102286.81
2024-01-11T01:30:10.687Z,102290.97
2024-01-11T01:32:37.714Z,102256.09
2024-01-11T01:35:10.110Z,102302.59
2024-01-11T01:37:36.922Z,102304.44
2024-01-11T01:40:04.407Z,102236.50
2024-01-11T01:42:31.085Z,102294.03
2024-01-11T01:44:57.997Z,102297.25
2024-01-11T01:47:29.767Z,102301.69
2024-01-11T01:50:02.543Z,102291.28
2024-01-11T01:52:29.662Z,102277.78
2024-01-11T01:54:59.199Z,102288.53
2024-01-11T01:57:26.520Z,102253.56
2024-01-11T01:59:53.795Z,102305.34
2024-01-11T02:02:21.669Z,102291.28
2024-01-11T02:04:48.678Z,102301.56
2024-01-11T02:07:15.632Z,102286.72
2024-01-11T02:09:45.187Z,102199.78
2024-01-11T02:12:15.863Z,102234.53
2024-01-11T02:14:43.300Z,102222.31
2024-01-11T02:17:10.282Z,102297.16
2024-01-11T02:19:37.409Z,102270.69
2024-01-11T02:22:13.144Z,102285.22
2024-01-11T02:24:39.975Z,102276.34
2024-01-11T02:27:06.676Z,102285.88
2024-01-11T02:29:33.550Z,102270.34
2024-01-11T02:32:02.768Z,102278.91
2024-01-11T02:34:32.539Z,102272.00
2024-01-11T02:37:03.260Z,102280.63
2024-01-11T02:39:30.613Z,102261.53
2024-01-11T02:41:59.320Z,102275.22
2024-01-11T02:44:26.435Z,102253.06
2024-01-11T02:46:57.490Z,102283.06
2024-01-11T02:49:24.792Z,102277.09
2024-01-11T02:51:51.703Z,102275.34
2024-01-11T02:54:18.610Z,102248.88
2024-01-11T02:57:01.839Z,102261.53
2024-01-11T02:59:37.687Z,102271.03
2024-01-11T03:02:05.532Z,102258.03
2024-01-11T03:04:32.455Z,102254.09
2024-01-11T03:06:59.201Z,102224.16
2024-01-11T03:09:26.672Z,102247.22
2024-01-11T03:11:53.407Z,102198.31
2024-01-11T03:14:22.961Z,102242.56
2024-01-11T03:16:52.043Z,102257.41
2024-01-11T03:19:19.129Z,102242.91
2024-01-11T03:21:50.027Z,102243.25
2024-01-11T03:24:22.323Z,102226.91
2024-01-11T03:27:08.815Z,102220.53
2024-01-11T03:29:36.956Z,102246.13
2024-01-11T03:32:03.808Z,102225.16
2024-01-11T03:34:33.445Z,102235.78
2024-01-11T03:37:00.298Z,102236.75
2024-01-11T03:39:27.265Z,102246.34
2024-01-11T03:41:53.982Z,102239.38
2024-01-11T03:44:20.907Z,102100.47
2024-01-11T03:46:47.837Z,102217.88
2024-01-11T03:49:16.406Z,102214.56
2024-01-11T03:51:45.013Z,102103.31
2024-01-11T03:54:14.684Z,102237.09
2024-01-11T03:56:41.714Z,102229.88
2024-01-11T03:59:08.660Z,102180.16
2024-01-11T04:01:40.951Z,102222.19
2024-01-11T04:04:07.858Z,102237.47
2024-01-11T04:06:37.081Z,102205.06
2024-01-11T04:09:03.950Z,102237.69
2024-01-11T04:11:31.099Z,102214.75
2024-01-11T04:14:00.021Z,102220.03
2024-01-11T04:16:26.857Z,102209.00
2024-01-11T04:18:53.807Z,102237.13
2024-01-11T04:21:31.500Z,102197.50
2024-01-11T04:24:24.020Z,102216.72
2024-01-11T04:27:13.601Z,102229.94
2024-01-11T04:29:42.315Z,102210.19
2024-01-11T04:32:09.235Z,102213.19
2024-01-11T04:34:35.934Z,102148.03
2024-01-11T04:37:02.816Z,102165.16
2024-01-11T04:39:52.814Z,102198.44
2024-01-11T04:42:30.052Z,102206.31
2024-01-11T04:45:01.576Z,102215.00
2024-01-11T04:47:33.699Z,102144.66
2024-01-11T04:50:00.501Z,102217.72
2024-01-11T04:52:27.374Z,102214.47
2024-01-11T04:54:54.078Z,102179.19
2024-01-11T04:57:20.815Z,102212.66
2024-01-11T04:59:47.618Z,102193.53
2024-01-11T05:02:14.358Z,102102.78
2024-01-11T05:04:41.162Z,102183.75
2024-01-11T05:07:07.966Z,102218.25
2024-01-11T05:09:47.049Z,102176.19
2024-01-11T05:12:19.860Z,102172.13
2024-01-11T05:14:46.739Z,102211.56
2024-01-11T05:17:14.504Z,102222.22
2024-01-11T05:19:43.094Z,102186.59
2024-01-11T05:22:10.198Z,102191.97
2024-01-11T05:24:36.935Z,102199.41
2024-01-11T05:27:03.890Z,102166.81
2024-01-11T05:29:36.592Z,102191.63
2024-01-11T05:32:11.010Z,102204.16
2024-01-11T05:34:38.714Z,102158.84
2024-01-11T05:37:11.766Z,102178.69
2024-01-11T05:39:41.044Z,102174.59
2024-01-11T05:42:08.257Z,102178.75
2024-01-11T05:44:38.909Z,102182.81
2024-01-11T05:47:05.765Z,102207.00
2024-01-11T05:49:32.493Z,102218.31
2024-01-11T05:51:59.253Z,102218.53
2024-01-11T05:54:27.791Z,102207.81
2024-01-11T05:56:58.846Z,102221.50
2024-01-11T05:59:25.643Z,102183.66
2024-01-11T06:01:54.124Z,102217.00
2024-01-11T06:04:28.543Z,102214.69
2024-01-11T06:07:00.498Z,102189.78
2024-01-11T06:09:27.492Z,102212.31
2024-01-11T06:11:56.838Z,102213.41
2024-01-11T06:14:26.619Z,102217.34
2024-01-11T06:16:54.915Z,102224.94
2024-01-11T06:19:26.291Z,102208.81
2024-01-11T06:21:59.051Z,102220.78
2024-01-11T06:24:25.833Z,102226.03
2024-01-11T06:26:55.058Z,102184.88
2024-01-11T06:29:26.746Z,102217.47
2024-01-11T06:31:53.488Z,102224.44
2024-01-11T06:34:20.232Z,102222.56
2024-01-11T06:36:47.131Z,102213.28
2024-01-11T06:39:16.185Z,102198.72
2024-01-11T06:41:44.616Z,102187.44
2024-01-11T06:44:14.148Z,102227.81
2024-01-11T06:46:42.704Z,102176.91
2024-01-11T06:49:09.783Z,102202.75
2024-01-11T06:51:37.996Z,102206.06
2024-01-11T06:54:04.935Z,102191.19
2024-01-11T06:56:33.919Z,102209.34
2024-01-11T06:59:01.203Z,102114.88
2024-01-11T07:01:28.027Z,102217.41
2024-01-11T07:04:03.990Z,102172.94
2024-01-11T07:06:32.868Z,102216.09
2024-01-11T07:09:03.495Z,102204.16
2024-01-11T07:11:31.096Z,102195.00
2024-01-11T07:14:00.348Z,102194.94
2024-01-11T07:16:27.156Z,102160.63
2024-01-11T07:18:54.236Z,102185.28
2024-01-11T07:21:31.231Z,102196.19
2024-01-11T07:24:01.531Z,102198.53
2024-01-11T07:26:28.682Z,102187.50
2024-01-11T07:28:58.520Z,102197.16
2024-01-11T07:31:25.593Z,102203.78
2024-01-11T07:34:03.815Z,102209.06
2024-01-11T07:36:36.313Z,102185.00
2024-01-11T07:39:03.942Z,102185.84
2024-01-11T07:41:30.830Z,102201.50
2024-01-11T07:44:02.785Z,102186.53
2024-01-11T07:46:38.862Z,102210.19
2024-01-11T07:49:09.371Z,102204.88
2024-01-11T07:51:36.440Z,102209.50
2024-01-11T07:54:04.105Z,102202.47
2024-01-11T07:56:32.659Z,102199.91
2024-01-11T07:58:59.765Z,102218.88
2024-01-11T08:01:27.009Z,102215.91
2024-01-11T08:03:54.310Z,102205.69
2024-01-11T08:06:25.444Z,102209.84
2024-01-11T08:08:55.606Z,102211.69
2024-01-11T08:11:22.488Z,102210.88
2024-01-11T08:13:49.360Z,102216.81
2024-01-11T08:16:19.891Z,102201.19
2024-01-11T08:18:47.401Z,102184.88
2024-01-11T08:21:14.873Z,102234.06
2024-01-11T08:23:47.206Z,102135.97
2024-01-11T08:26:15.543Z,102200.53
2024-01-11T08:28:46.085Z,102172.31
2024-01-11T08:31:13.862Z,102183.88
2024-01-11T08:33:41.523Z,102222.66
2024-01-11T08:36:12.837Z,102197.59
2024-01-11T08:38:45.976Z,102205.06
2024-01-11T08:41:13.024Z,102213.66
2024-01-11T08:43:40.897Z,102217.28
2024-01-11T08:46:07.677Z,102201.91
2024-01-11T08:48:34.883Z,102224.38
2024-01-11T08:51:02.351Z,102226.09
2024-01-11T08:53:29.288Z,102218.22
2024-01-11T08:55:56.258Z,102221.66
2024-01-11T08:58:23.049Z,102206.75
2024-01-11T09:00:51.747Z,102190.72
2024-01-11T09:03:18.912Z,102212.88
2024-01-11T09:05:51.507Z,102208.59
2024-01-11T09:08:24.338Z,102225.38
2024-01-11T09:10:51.243Z,102222.66
2024-01-11T09:13:20.075Z,102212.34
2024-01-11T09:15:46.877Z,102232.34
2024-01-11T09:18:16.954Z,102085.88
2024-01-11T09:20:55.252Z,102198.59
2024-01-11T09:23:24.172Z,102213.78
2024-01-11T09:25:58.845Z,102220.34
2024-01-11T09:28:25.768Z,102198.13
2024-01-11T09:30:52.604Z,102183.06
2024-01-11T09:33:22.085Z,102199.34
2024-01-11T09:35:49.230Z,102150.25
2024-01-11T09:38:18.577Z,102207.91
2024-01-11T09:40:45.641Z,102206.91
2024-01-11T09:43:22.826Z,102219.56
2024-01-11T09:45:56.702Z,102196.16
2024-01-11T09:48:25.996Z,102217.56
2024-01-11T09:51:05.953Z,102212.81
2024-01-11T09:53:44.480Z,102144.84
2024-01-11T09:56:12.135Z,102196.81
2024-01-11T09:58:46.414Z,102194.13
2024-01-11T10:01:14.969Z,102171.00
2024-01-11T10:03:44.528Z,102094.69
2024-01-11T10:06:11.604Z,102193.28
2024-01-11T10:08:38.540Z,102188.13
2024-01-11T10:11:05.894Z,102175.69
2024-01-11T10:13:37.005Z,102157.50
2024-01-11T10:16:07.760Z,102176.09
2024-01-11T10:18:34.822Z,102066.41
2024-01-11T10:21:02.529Z,102114.06
2024-01-11T10:23:32.816Z,102160.69
2024-01-11T10:26:13.322Z,102141.50
2024-01-11T10:28:40.119Z,102138.69
2024-01-11T10:31:11.741Z,102140.78
2024-01-11T10:33:40.393Z,102085.47
2024-01-11T10:36:15.742Z,102028.41
2024-01-11T10:38:50.011Z,102118.00
2024-01-11T10:41:21.864Z,102117.44
2024-01-11T10:43:49.785Z,102028.34
2024-01-11T10:46:18.106Z,102084.94
2024-01-11T10:48:50.433Z,102119.28
2024-01-11T10:51:21.064Z,102091.34
2024-01-11T10:53:49.343Z,102017.25
2024-01-11T10:56:19.826Z,102098.28
2024-01-11T10:58:48.428Z,102111.47
2024-01-11T11:01:15.971Z,102097.06
2024-01-11T11:03:50.980Z,102093.34
2024-01-11T11:06:20.315Z,102063.00
2024-01-11T11:08:51.880Z,102026.84
2024-01-11T11:11:19.688Z,102075.00
2024-01-11T11:13:50.022Z,102098.84
2024-01-11T11:16:18.309Z,102054.06
2024-01-11T11:18:45.871Z,102050.78
2024-01-11T11:21:13.077Z,102077.03
2024-01-11T11:23:40.622Z,102077.88
2024-01-11T11:26:11.576Z,102072.19
2024-01-11T11:28:38.445Z,102070.34
2024-01-11T11:31:05.398Z,102048.41
2024-01-11T11:33:33.384Z,102050.31
2024-01-11T11:36:04.270Z,102050.94
2024-01-11T11:38:32.757Z,102048.66
2024-01-11T11:41:01.594Z,102029.72
2024-01-11T11:43:42.418Z,101998.00
2024-01-11T11:46:19.377Z,102010.34
2024-01-11T11:48:56.035Z,102015.75
2024-01-11T11:51:25.787Z,102024.41
2024-01-11T11:53:54.811Z,102025.28
2024-01-11T11:56:23.671Z,101988.28
2024-01-11T11:58:51.160Z,101982.53
2024-01-11T12:01:32.078Z,101994.09
2024-01-11T12:04:04.134Z,102005.44
2024-01-11T12:06:43.806Z,102003.59
2024-01-11T12:09:31.628Z,101997.53
2024-01-11T12:12:20.748Z,101993.50
2024-01-11T12:14:51.011Z,101965.25
2024-01-11T12:17:21.786Z,101973.44
2024-01-11T12:19:49.684Z,101961.03
2024-01-11T12:22:16.731Z,101947.78
2024-01-11T12:24:43.564Z,101970.53
2024-01-11T12:27:10.468Z,101915.63
2024-01-11T12:29:48.163Z,101935.00
2024-01-11T12:32:20.014Z,101932.34
2024-01-11T12:34:54.228Z,101875.41
2024-01-11T12:37:29.869Z,101945.91
2024-01-11T12:40:00.576Z,101938.78
2024-01-11T12:42:30.786Z,101931.78
2024-01-11T12:44:59.479Z,101916.66
2024-01-11T12:47:30.913Z,101945.91
2024-01-11T12:49:57.830Z,101944.66
2024-01-11T12:52:31.756Z,101903.47
2024-01-11T12:54:59.305Z,101942.25
2024-01-11T12:57:30.429Z,101936.69
2024-01-11T13:00:13.553Z,101911.22
2024-01-11T13:02:44.107Z,101886.41
2024-01-11T13:05:11.048Z,101922.00
2024-01-11T13:07:41.784Z,101906.50
2024-01-11T13:10:09.381Z,101921.19
2024-01-11T13:12:36.586Z,101917.44
2024-01-11T13:15:12.189Z,101892.75
2024-01-11T13:17:47.370Z,101893.38
2024-01-11T13:20:15.684Z,101892.06
2024-01-11T13:22:44.640Z,101885.91
2024-01-11T13:25:14.602Z,101871.06
2024-01-11T13:27:46.299Z,101895.81
2024-01-11T13:30:18.043Z,101890.16
2024-01-11T13:32:46.757Z,101903.13
2024-01-11T13:35:14.066Z,101900.34
2024-01-11T13:37:41.706Z,101899.41
2024-01-11T13:40:18.166Z,101906.69
2024-01-11T13:42:56.352Z,101902.19
2024-01-11T13:45:24.852Z,101891.88
2024-01-11T13:47:52.708Z,101889.47
2024-01-11T13:50:21.170Z,101860.38
2024-01-11T13:52:49.009Z,101886.06
2024-01-11T13:55:15.813Z,101883.00
2024-01-11T13:57:44.273Z,101878.44
2024-01-11T14:00:12.716Z,101886.19
2024-01-11T14:02:40.987Z,101816.28
2024-01-11T14:05:12.745Z,101893.63
2024-01-11T14:07:45.500Z,101894.31
2024-01-11T14:10:18.437Z,101867.97
2024-01-11T14:12:45.205Z,101864.31
2024-01-11T14:15:15.169Z,101879.25
2024-01-11T14:17:43.352Z,101803.59
2024-01-11T14:20:15.547Z,101877.97
2024-01-11T14:22:56.432Z,101881.22
2024-01-11T14:25:31.654Z,101840.72
2024-01-11T14:27:59.611Z,101865.38
2024-01-11T14:30:29.997Z,101851.69
2024-01-11T14:33:05.902Z,101842.34
2024-01-11T14:35:36.994Z,101867.75
2024-01-11T14:38:08.107Z,101852.56
2024-01-11T14:40:35.675Z,101846.91
2024-01-11T14:43:02.490Z,101870.53
2024-01-11T14:45:29.890Z,101858.28
2024-01-11T14:48:05.581Z,101827.59
2024-01-11T14:50:32.385Z,101834.28
2024-01-11T14:53:05.103Z,101842.19
2024-01-11T14:55:34.318Z,101784.56
2024-01-11T14:58:02.381Z,101849.34
2024-01-11T15:00:32.984Z,101851.22
2024-01-11T15:03:00.087Z,101847.81
2024-01-11T15:05:26.873Z,101850.19
2024-01-11T15:07:55.282Z,101825.47
2024-01-11T15:10:24.247Z,101833.41
2024-01-11T15:12:50.990Z,101837.91
2024-01-11T15:15:19.461Z,101828.59
2024-01-11T15:17:46.316Z,101806.47
2024-01-11T15:20:13.969Z,101815.75
2024-01-11T15:22:40.744Z,101814.88
2024-01-11T15:25:09.341Z,101831.06
2024-01-11T15:27:36.321Z,101792.78
2024-01-11T15:30:04.043Z,101832.38
2024-01-11T15:32:39.257Z,101829.38
2024-01-11T15:35:15.266Z,101829.56
2024-01-11T15:37:43.135Z,101833.28
2024-01-11T15:40:10.290Z,101840.09
2024-01-11T15:42:42.867Z,101833.34
2024-01-11T15:45:10.075Z,101836.00
2024-01-11T15:47:47.055Z,101755.72
2024-01-11T15:50:13.964Z,101833.63
2024-01-11T15:52:41.843Z,101819.66
2024-01-11T15:55:55.209Z,101742.56
2024-01-11T15:58:38.165Z,101853.19
2024-01-11T16:01:05.404Z,101733.94
2024-01-11T16:03:35.681Z,101830.94
2024-01-11T16:06:02.579Z,101841.72
2024-01-11T16:08:33.052Z,101846.13
2024-01-11T16:11:00.511Z,101707.44
2024-01-11T16:13:30.736Z,101841.03
2024-01-11T16:16:00.725Z,101796.31
2024-01-11T16:18:27.814Z,101762.16
2024-01-11T16:20:56.291Z,101822.50
2024-01-11T16:23:23.271Z,101851.50
2024-01-11T16:25:50.241Z,101852.13
2024-01-11T16:28:17.203Z,101859.09
2024-01-11T16:30:44.105Z,101859.41
2024-01-11T16:33:11.663Z,101804.63
2024-01-11T16:35:45.234Z,101855.53
2024-01-11T16:38:19.537Z,101868.16
2024-01-11T16:40:46.493Z,101857.63
2024-01-11T16:43:14.721Z,101836.50
2024-01-11T16:45:52.811Z,101863.13
2024-01-11T16:48:24.914Z,101848.91
2024-01-11T16:50:52.152Z,101851.34
2024-01-11T16:53:19.021Z,101869.41
2024-01-11T16:55:46.688Z,101848.69
2024-01-11T16:58:17.054Z,101851.28
2024-01-11T17:03:36.755Z,101869.97
2024-01-11T17:06:04.074Z,101868.16
2024-01-11T17:08:31.268Z,101877.03
2024-01-11T17:11:10.616Z,101863.13
2024-01-11T17:13:38.462Z,101874.84
2024-01-11T17:16:21.408Z,101876.75
2024-01-11T17:18:48.818Z,101836.38
2024-01-11T17:21:15.970Z,101817.91
2024-01-11T17:23:44.834Z,101834.34
2024-01-11T17:26:13.086Z,101834.50
2024-01-11T17:28:40.029Z,101877.03
2024-01-11T17:31:07.401Z,101876.09
2024-01-11T17:33:47.879Z,101860.59
2024-01-11T17:36:15.369Z,101834.28
2024-01-11T17:38:46.030Z,101863.63
2024-01-11T17:41:20.372Z,101864.31
2024-01-11T17:43:51.075Z,101862.63
2024-01-11T17:46:36.308Z,101864.03
2024-01-11T17:49:03.548Z,101828.34
2024-01-11T17:51:30.415Z,101805.78
2024-01-11T17:53:57.377Z,101842.44
2024-01-11T17:56:24.499Z,101856.59
2024-01-11T17:58:51.281Z,101762.34
2024-01-11T18:01:23.363Z,101864.31
2024-01-11T18:03:55.061Z,101840.56
2024-01-11T18:06:27.227Z,101873.44
2024-01-11T18:08:54.425Z,101876.50
2024-01-11T18:11:21.278Z,101834.41
2024-01-11T18:13:48.089Z,101855.59
2024-01-11T18:16:25.176Z,101854.53
2024-01-11T18:18:52.352Z,101847.41
2024-01-11T18:21:20.894Z,101794.34
2024-01-11T18:24:00.867Z,101861.50
2024-01-11T18:26:44.000Z,101855.31
2024-01-11T18:29:19.879Z,101871.38
2024-01-11T18:31:56.125Z,101875.75
2024-01-11T18:34:23.145Z,101800.34
2024-01-11T18:36:52.802Z,101869.31
2024-01-11T18:39:20.680Z,101879.28
2024-01-11T18:42:10.499Z,101857.38
2024-01-11T18:44:52.538Z,101879.72
2024-01-11T18:47:22.086Z,101876.19
2024-01-11T18:49:49.410Z,101873.34
2024-01-11T18:52:23.404Z,101867.03
2024-01-11T18:55:05.250Z,101888.41
2024-01-11T18:57:39.750Z,101876.97
2024-01-11T19:00:21.653Z,101892.34
2024-01-11T19:03:00.585Z,101887.31
2024-01-11T19:05:41.526Z,101874.34
2024-01-11T19:08:14.076Z,101882.09
2024-01-11T19:10:47.748Z,101885.31
2024-01-11T19:13:24.497Z,101894.25
2024-01-11T19:16:04.531Z,101849.28
2024-01-11T19:18:32.103Z,101885.66
2024-01-11T19:21:11.995Z,101840.06
2024-01-11T19:23:56.574Z,101872.72
2024-01-11T19:26:41.931Z,101874.81
2024-01-11T19:29:10.290Z,101835.50
2024-01-11T19:32:00.057Z,101883.69
2024-01-11T19:34:51.572Z,101862.75
2024-01-11T19:37:23.130Z,101893.88
2024-01-11T19:39:51.099Z,101873.13
2024-01-11T19:42:17.876Z,101868.78
2024-01-11T19:44:44.767Z,101891.00
2024-01-11T19:47:32.755Z,101894.63
2024-01-11T19:50:13.621Z,101876.28
2024-01-11T19:52:58.289Z,101881.88
2024-01-11T19:55:26.979Z,101893.63
2024-01-11T19:57:53.736Z,101877.06
2024-01-11T20:00:25.155Z,101888.38
2024-01-11T20:02:52.170Z,101873.38
2024-01-11T20:05:19.480Z,101902.06
2024-01-11T20:07:46.769Z,101899.22
2024-01-11T20:10:13.603Z,101891.53
2024-01-11T20:12:40.335Z,101827.91
2024-01-11T20:15:10.414Z,101881.13
2024-01-11T20:17:37.603Z,101872.63
2024-01-11T20:20:10.294Z,101882.22
2024-01-11T20:22:37.291Z,101903.31
2024-01-11T20:25:07.607Z,101895.75
2024-01-11T20:27:36.577Z,101896.28
2024-01-11T20:30:08.052Z,101881.91
2024-01-11T20:32:36.912Z,101904.56
2024-01-11T20:35:04.035Z,101826.19
2024-01-11T20:37:30.868Z,101873.41
2024-01-11T20:39:57.595Z,101896.78
2024-01-11T20:42:26.713Z,101890.63
2024-01-11T20:44:56.787Z,101868.78
2024-01-11T20:47:24.006Z,101887.72
2024-01-11T20:49:52.153Z,101881.09
2024-01-11T20:52:24.311Z,101894.31
2024-01-11T20:54:53.417Z,101858.28
2024-01-11T20:57:20.977Z,101821.31
2024-01-11T20:59:47.812Z,101906.13
2024-01-11T21:02:14.801Z,101870.03
2024-01-11T21:04:41.662Z,101912.97
2024-01-11T21:07:17.001Z,101911.38
2024-01-11T21:09:43.686Z,101920.28
2024-01-11T21:12:12.408Z,101834.03
2024-01-11T21:14:39.358Z,101917.19
2024-01-11T21:17:07.401Z,101920.00
2024-01-11T21:19:35.114Z,101922.84
2024-01-11T21:22:04.141Z,101915.34
2024-01-11T21:24:35.866Z,101926.25
2024-01-11T21:27:04.050Z,101931.91
2024-01-11T21:29:31.077Z,101855.09
2024-01-11T21:31:58.733Z,101912.00
2024-01-11T21:34:26.178Z,101904.53
2024-01-11T21:36:53.026Z,101815.63
2024-01-11T21:39:20.715Z,101810.66
2024-01-11T21:44:29.773Z,101906.94
2024-01-11T21:46:56.984Z,101825.16
2024-01-11T21:49:23.809Z,101894.66
2024-01-11T21:51:58.909Z,101870.88
2024-01-11T21:54:36.668Z,101941.09
2024-01-11T21:57:23.338Z,101933.34
2024-01-11T21:59:53.901Z,101932.03
2024-01-11T22:02:37.917Z,101917.16
2024-01-11T22:05:22.830Z,101931.25
2024-01-11T22:07:56.092Z,101928.47
2024-01-11T22:10:22.844Z,101933.41
2024-01-11T22:12:58.905Z,101922.31
2024-01-11T22:15:26.003Z,101939.38
2024-01-11T22:18:03.457Z,101928.97
2024-01-11T22:20:34.474Z,101943.81
2024-01-11T22:23:03.878Z,101950.03
2024-01-11T22:25:32.624Z,101948.94
2024-01-11T22:28:05.520Z,101954.94
2024-01-11T22:30:32.545Z,101930.72
2024-01-11T22:32:59.445Z,101955.78
2024-01-11T22:35:26.455Z,101951.69
2024-01-11T22:37:53.368Z,101954.28
2024-01-11T22:40:20.696Z,101941.06
2024-01-11T22:42:49.367Z,101963.63
2024-01-11T22:45:17.765Z,101930.19
2024-01-11T22:47:45.367Z,101924.97
2024-01-11T22:50:16.224Z,101907.53
2024-01-11T22:52:44.904Z,101941.63
2024-01-11T22:55:11.713Z,101914.13
2024-01-11T22:57:39.746Z,101944.06
2024-01-11T23:00:22.645Z,101925.72
2024-01-11T23:02:51.112Z,101933.91
2024-01-11T23:05:24.266Z,101898.84
2024-01-11T23:07:51.054Z,101919.06
2024-01-11T23:10:18.185Z,101824.81
2024-01-11T23:12:45.064Z,101914.78
2024-01-11T23:15:12.524Z,101933.34
2024-01-11T23:17:42.195Z,101922.34
2024-01-11T23:20:13.486Z,101924.50
2024-01-11T23:22:42.063Z,101900.81
2024-01-11T23:25:11.923Z,101917.78
2024-01-11T23:27:38.628Z,101917.97
2024-01-11T23:30:09.620Z,101913.03
2024-01-11T23:32:41.653Z,101910.31
2024-01-11T23:35:26.143Z,101860.56
2024-01-11T23:37:57.590Z,101900.09
2024-01-11T23:40:33.645Z,101884.69
2024-01-11T23:43:03.880Z,101835.44
2024-01-11T23:45:39.013Z,101903.25
2024-01-11T23:48:26.768Z,101900.84
2024-01-11T23:50:57.134Z,101844.81
2024-01-11T23:53:30.395Z,101870.97
2024-01-11T23:56:06.456Z,101886.06
2024-01-11T23:58:48.442Z,101868.06
